Time;durP1;ratioP1;P1;durP2;ratioP2;P2;SDS_P1;SDS_P2;PMS_P1;PMS_P2;Temp;Humidity;BMP_temperature;BMP_pressure;BME280_temperature;BME280_humidity;BME280_pressure;Samples;Min_cycle;Max_cycle;Signal;HPM_P1;HPM_P2
2023/01/16 00:01:18;;;;;;;4.90;0.70;;;1.20;99.90;;;0.39;100.00;96117.53;5030815;28;20029;-36
2023/01/16 00:03:44;;;;;;;4.07;0.70;;;1.30;99.90;;;0.53;100.00;96099.97;5028456;28;20025;-36
2023/01/16 00:06:10;;;;;;;3.08;0.75;;;1.50;99.90;;;0.72;100.00;96102.25;5031314;28;20068;-36
2023/01/16 00:08:35;;;;;;;4.28;0.73;;;1.60;99.90;;;0.83;100.00;96096.84;5032676;28;20124;-37
2023/01/16 00:11:01;;;;;;;4.70;1.02;;;1.80;99.90;;;0.93;100.00;96094.03;5032970;28;20038;-36
2023/01/16 00:13:27;;;;;;;2.05;0.68;;;1.90;99.90;;;1.05;100.00;96087.72;5031939;28;20065;-36
2023/01/16 00:15:52;;;;;;;2.50;0.80;;;2.00;99.90;;;1.14;100.00;96091.88;5031288;28;20032;-36
2023/01/16 00:18:18;;;;;;;2.25;0.93;;;2.10;99.90;;;1.29;100.00;96091.56;5027786;28;20029;-36
2023/01/16 00:20:46;;;;;;;5.47;0.90;;;2.10;99.90;;;1.39;100.00;96079.22;5016110;28;20044;-36
2023/01/16 00:23:12;;;;;;;2.15;0.70;;;2.30;99.90;;;1.48;100.00;96071.22;5030646;28;20029;-36
2023/01/16 00:25:44;;;;;;;1.83;0.60;;;2.40;99.90;;;1.43;100.00;96060.09;5029628;28;20051;-36
2023/01/16 00:28:11;;;;;;;;;;;2.40;99.90;;;1.35;100.00;96064.63;5033967;28;20025;-36
2023/01/16 00:30:37;;;;;;;2.20;0.63;;;2.30;99.90;;;1.30;100.00;96053.47;5033202;28;20151;-36
2023/01/16 00:33:04;;;;;;;1.08;0.40;;;2.20;99.90;;;1.21;100.00;96036.34;5033121;28;20029;-36
2023/01/16 00:35:30;;;;;;;1.15;0.52;;;2.20;99.90;;;1.24;100.00;96046.66;5031964;28;20485;-36
2023/01/16 00:37:56;;;;;;;2.10;0.60;;;2.20;99.90;;;1.25;100.00;96045.75;5031699;28;20106;-36
2023/01/16 00:40:22;;;;;;;2.08;0.93;;;2.20;99.90;;;1.26;100.00;96041.44;5030797;28;20119;-36
2023/01/16 00:42:48;;;;;;;2.78;0.60;;;2.20;99.90;;;1.29;100.00;96033.56;5031390;28;20056;-36
2023/01/16 00:45:14;;;;;;;1.88;0.60;;;2.20;99.90;;;1.31;100.00;96023.97;5028169;28;20505;-37
2023/01/16 00:47:40;;;;;;;2.95;0.70;;;2.30;99.90;;;1.32;100.00;96033.50;5028800;28;20113;-36
2023/01/16 00:50:06;;;;;;;2.70;0.65;;;2.30;99.90;;;1.11;100.00;95996.75;5032390;28;20492;-37
2023/01/16 00:52:32;;;;;;;2.15;0.90;;;2.20;99.90;;;1.24;100.00;96018.09;5025851;28;20396;-37
2023/01/16 00:54:58;;;;;;;1.70;0.50;;;2.20;99.90;;;1.08;100.00;96007.19;5027043;28;20041;-37
2023/01/16 00:57:23;;;;;;;1.83;0.60;;;2.10;99.90;;;1.01;100.00;96004.78;5023171;28;20043;-37
2023/01/16 00:59:49;;;;;;;1.70;0.50;;;2.00;99.90;;;0.98;100.00;96003.06;5012203;28;20039;-36
2023/01/16 01:02:15;;;;;;;4.20;0.50;;;1.90;99.90;;;0.87;100.00;95998.13;5028144;28;20041;-37
2023/01/16 01:04:42;;;;;;;2.42;0.77;;;1.90;99.90;;;0.84;100.00;95990.38;5032472;28;20060;-37
2023/01/16 01:07:07;;;;;;;3.08;0.70;;;1.80;99.90;;;0.72;100.00;95981.13;5026521;28;20094;-37
2023/01/16 01:09:33;;;;;;;3.15;0.73;;;1.70;99.90;;;0.68;100.00;95989.00;5029215;28;20155;-37
2023/01/16 01:12:00;;;;;;;2.60;0.60;;;1.60;99.90;;;0.53;100.00;95962.50;5032427;28;20021;-37
2023/01/16 01:14:26;;;;;;;2.35;0.50;;;1.60;99.90;;;0.52;100.00;95968.59;5035986;28;20299;-36
2023/01/16 01:16:51;;;;;;;2.72;0.73;;;1.50;99.90;;;0.48;100.00;95968.66;5035909;28;20064;-37
2023/01/16 01:19:17;;;;;;;0.65;0.60;;;1.40;99.90;;;0.53;100.00;95959.06;5033047;28;20188;-36
2023/01/16 01:21:43;;;;;;;2.40;0.60;;;1.40;99.90;;;0.53;100.00;95957.31;5031613;28;20040;-37
2023/01/16 01:24:10;;;;;;;2.47;0.60;;;1.40;99.90;;;0.29;100.00;95921.50;5027445;28;20626;-37
2023/01/16 01:26:37;;;;;;;2.08;0.50;;;1.40;99.90;;;0.48;100.00;95951.34;5028134;28;20021;-36
2023/01/16 01:29:03;;;;;;;2.60;0.70;;;1.40;99.90;;;0.48;100.00;95953.09;5032296;28;20036;-37
2023/01/16 01:31:29;;;;;;;3.17;0.50;;;1.40;99.90;;;0.52;100.00;95955.63;5033563;28;20033;-38
2023/01/16 01:33:54;;;;;;;1.88;0.40;;;1.40;99.90;;;0.54;100.00;95951.25;5014777;28;20037;-36
2023/01/16 01:36:20;;;;;;;2.45;0.80;;;1.50;99.90;;;0.57;100.00;95950.31;5034868;28;20301;-36
2023/01/16 01:38:49;;;;;;;4.03;0.70;;;1.50;99.90;;;0.51;100.00;95938.31;5031516;28;20552;-36
2023/01/16 01:41:16;;;;;;;3.28;0.60;;;1.50;99.90;;;0.46;100.00;95934.13;5033969;28;20561;-37
2023/01/16 01:43:51;;;;;;;1.73;0.55;;;1.40;99.90;;;0.48;100.00;95934.94;5035522;28;20539;-36
2023/01/16 01:46:40;;;;;;;2.25;0.60;;;1.40;99.90;;;0.43;100.00;95935.06;5027454;28;20036;-36
2023/01/16 01:49:29;;;;;;;2.30;0.75;;;1.40;99.90;;;0.37;100.00;95936.00;5030205;28;20116;-36
2023/01/16 01:52:00;;;;;;;4.38;0.60;;;1.30;99.90;;;0.43;100.00;95929.00;5028613;28;20123;-37
2023/01/16 01:54:40;;;;;;;1.77;0.43;;;1.30;99.90;;;0.33;100.00;95923.16;5033323;28;20021;-37
2023/01/16 01:57:13;;;;;;;1.50;0.55;;;1.30;99.90;;;0.32;100.00;95908.47;5033010;28;20033;-37
2023/01/16 01:59:45;;;;;;;3.08;0.57;;;1.30;99.90;;;0.39;100.00;95897.06;5031986;28;20072;-37
2023/01/16 02:02:14;;;;;;;;;;;1.30;99.90;;;0.22;100.00;95881.88;5033238;28;20108;-36
2023/01/16 02:04:43;;;;;;;2.00;0.60;;;1.30;99.90;;;0.32;100.00;95883.41;5032506;28;19920;-36
2023/01/16 02:07:12;;;;;;;1.15;0.50;;;1.30;99.90;;;0.30;100.00;95877.38;5013684;28;20060;-37
2023/01/16 02:09:38;;;;;;;5.85;0.50;;;1.30;99.90;;;0.31;100.00;95870.47;5033285;28;20025;-37
2023/01/16 02:12:11;;;;;;;2.50;0.73;;;1.30;99.90;;;0.32;100.00;95852.28;5013801;28;20075;-37
2023/01/16 02:14:45;;;;;;;4.50;0.52;;;1.30;99.90;;;0.28;100.00;95848.03;5027969;28;20032;-37
2023/01/16 02:20:08;;;;;;;1.50;0.55;;;1.30;99.90;;;0.34;100.00;95827.19;5024737;28;20079;-36
2023/01/16 02:23:09;;;;;;;2.78;0.57;;;1.30;99.90;;;0.30;100.00;95815.16;5030293;28;20101;-37
2023/01/16 02:26:02;;;;;;;2.60;0.73;;;1.30;99.90;;;0.26;100.00;95807.47;5032172;28;20039;-36
2023/01/16 02:28:51;;;;;;;3.90;0.85;;;1.20;99.90;;;0.26;100.00;95797.13;5033769;28;20502;-37
2023/01/16 02:32:03;;;;;;;1.30;0.47;;;1.30;99.90;;;0.24;100.00;95789.38;5033777;28;20064;-37
2023/01/16 02:34:46;;;;;;;;;;;1.20;99.90;;;0.27;100.00;95783.25;5033642;28;20041;-37
2023/01/16 02:37:33;;;;;;;5.22;0.57;;;1.20;99.90;;;0.32;100.00;95781.41;5030723;28;20289;-36
2023/01/16 02:40:28;;;;;;;1.92;0.40;;;1.30;99.90;;;0.36;100.00;95780.47;5030748;28;20660;-37
2023/01/16 02:43:25;;;;;;;1.50;0.50;;;1.30;99.90;;;0.43;100.00;95763.88;5033665;28;20029;-36
2023/01/16 02:46:13;;;;;;;4.90;0.65;;;1.30;99.90;;;0.49;100.00;95755.09;5027871;23;20041;-37
2023/01/16 02:48:48;;;;;;;1.08;0.60;;;1.40;99.90;;;0.56;100.00;95749.72;5028234;28;20041;-38
2023/01/16 02:51:47;;;;;;;3.75;0.77;;;1.40;99.90;;;0.56;100.00;95741.09;5026472;28;20327;-38
2023/01/16 02:54:18;;;;;;;3.72;0.77;;;1.50;99.90;;;0.60;100.00;95734.09;5040840;28;20032;-38
2023/01/16 02:56:52;;;;;;;4.13;0.70;;;1.50;99.90;;;0.52;100.00;95716.09;5026145;28;20025;-38
2023/01/16 02:59:18;;;;;;;2.63;0.50;;;1.50;99.90;;;0.47;100.00;95713.63;5026143;28;20710;-38
2023/01/16 03:01:49;;;;;;;1.13;0.50;;;1.40;99.90;;;0.43;100.00;95706.81;5029892;28;20066;-37
2023/01/16 03:04:40;;;;;;;3.45;0.52;;;1.40;99.90;;;0.40;100.00;95701.72;5025478;28;20033;-37
2023/01/16 03:07:16;;;;;;;2.55;0.57;;;1.30;99.90;;;0.37;100.00;95689.66;5026968;28;20041;-38
2023/01/16 03:09:48;;;;;;;3.33;0.52;;;1.30;99.90;;;0.32;100.00;95686.34;5026352;28;20032;-38
2023/01/16 03:12:18;;;;;;;;;;;1.30;99.90;;;0.26;100.00;95677.84;5025430;28;20064;-37
2023/01/16 03:15:12;;;;;;;2.55;0.60;;;1.30;99.90;;;0.27;100.00;95674.34;5046044;28;19921;-37
2023/01/16 03:18:21;;;;;;;6.03;0.60;;;1.20;99.90;;;0.31;100.00;95661.28;5025231;28;20042;-37
2023/01/16 03:21:08;;;;;;;3.97;0.50;;;1.30;99.90;;;0.30;100.00;95656.13;5023105;28;20611;-37
2023/01/16 03:23:52;;;;;;;2.55;0.50;;;1.30;99.90;;;0.26;100.00;95628.59;5024192;28;20123;-38
2023/01/16 03:26:34;;;;;;;3.00;0.60;;;1.30;99.90;;;0.27;100.00;95623.38;5022956;28;20409;-37
2023/01/16 03:29:10;;;;;;;1.88;0.77;;;1.40;99.90;;;0.38;100.00;95641.25;5030643;28;20033;-38
2023/01/16 03:31:50;;;;;;;3.10;0.50;;;1.30;99.90;;;0.37;100.00;95635.19;5040437;28;20066;-37
2023/01/16 03:34:41;;;;;;;1.02;0.52;;;1.30;99.90;;;0.42;100.00;95629.91;5029449;28;20037;-38
2023/01/16 03:37:17;;;;;;;2.97;0.47;;;1.30;99.90;;;0.40;100.00;95625.66;5033120;28;20136;-37
2023/01/16 03:39:48;;;;;;;3.83;0.43;;;1.30;99.90;;;0.37;100.00;95618.78;5032554;28;20033;-37
2023/01/16 03:42:38;;;;;;;2.38;0.60;;;1.30;99.90;;;0.38;100.00;95612.72;5037317;28;20196;-37
2023/01/16 03:45:18;;;;;;;4.47;0.60;;;1.30;99.90;;;0.24;100.00;95586.31;5038431;28;20032;-37
2023/01/16 03:48:01;;;;;;;1.90;0.68;;;1.30;99.90;;;0.43;100.00;95602.22;5036052;28;20444;-37
2023/01/16 03:50:28;;;;;;;3.22;0.95;;;1.30;99.90;;;0.27;100.00;95576.69;5038308;28;20056;-38
2023/01/16 03:53:05;;;;;;;1.88;0.50;;;1.40;99.90;;;0.19;100.00;95552.69;5031666;28;20638;-37
2023/01/16 03:55:45;;;;;;;2.45;0.70;;;1.30;99.90;;;0.22;100.00;95562.16;5033426;28;20255;-37
2023/01/16 03:58:20;;;;;;;3.38;0.50;;;1.30;99.90;;;0.24;100.00;95566.41;5033555;28;20088;-37
2023/01/16 04:01:11;;;;;;;5.05;0.70;;;1.20;99.90;;;0.18;100.00;95556.22;5026417;28;20765;-37
2023/01/16 04:04:01;;;;;;;1.20;0.52;;;1.20;99.90;;;0.09;100.00;95544.31;5026552;28;20024;-37
2023/01/16 04:06:48;;;;;;;2.78;0.70;;;1.10;99.90;;;0.08;100.00;95539.19;5028844;28;20076;-37
2023/01/16 04:09:26;;;;;;;2.20;0.68;;;1.10;99.90;;;0.06;100.00;95528.84;5028319;28;20037;-37
2023/01/16 04:11:53;;;;;;;3.88;0.60;;;1.00;99.90;;;-0.04;100.00;95510.06;5028952;28;20041;-37
2023/01/16 04:14:22;;;;;;;1.17;0.50;;;1.00;99.90;;;0.03;100.00;95521.13;5025887;28;20068;-37
2023/01/16 04:16:49;;;;;;;2.00;0.57;;;1.00;99.90;;;0.01;100.00;95515.16;5024886;28;20042;-37
2023/01/16 04:19:16;;;;;;;0.80;0.40;;;1.00;99.90;;;-0.06;100.00;95508.41;5032887;28;20100;-37
2023/01/16 04:21:46;;;;;;;0.82;0.50;;;0.90;99.90;;;-0.10;100.00;95499.03;5024556;28;20029;-37
2023/01/16 04:24:14;;;;;;;1.05;0.60;;;0.90;99.90;;;-0.17;100.00;95498.34;5025256;28;20723;-37
2023/01/16 04:26:39;;;;;;;3.50;0.63;;;0.80;99.90;;;-0.21;100.00;95488.94;5027479;28;20029;-37
2023/01/16 04:29:05;;;;;;;1.67;0.60;;;0.80;99.90;;;-0.29;100.00;95483.94;5031619;28;20033;-37
2023/01/16 04:31:31;;;;;;;1.00;0.60;;;0.70;99.90;;;-0.59;100.00;95429.44;5028516;28;20037;-37
2023/01/16 04:33:56;;;;;;;0.45;0.30;;;0.60;99.90;;;-0.40;100.00;95452.28;5026789;28;20039;-37
2023/01/16 04:36:22;;;;;;;0.95;0.60;;;0.60;99.90;;;-0.40;100.00;95450.53;5029222;28;20041;-37
2023/01/16 04:38:48;;;;;;;0.82;0.45;;;0.50;99.90;;;-0.43;100.00;95442.88;5029120;28;20064;-37
2023/01/16 04:41:35;;;;;;;1.75;0.43;;;0.50;99.90;;;-0.49;100.00;95430.06;5032743;28;20370;-37
2023/01/16 04:44:00;;;;;;;2.53;0.70;;;0.50;99.90;;;-0.53;100.00;95432.78;5027428;28;20757;-37
2023/01/16 04:46:25;;;;;;;1.55;0.40;;;0.40;99.90;;;-0.80;100.00;95386.81;5027728;28;20705;-37
2023/01/16 04:48:51;;;;;;;4.25;0.60;;;0.40;99.90;;;-0.65;100.00;95405.44;5024324;28;20033;-37
2023/01/16 04:51:17;;;;;;;1.13;0.50;;;0.40;99.90;;;-0.65;100.00;95390.75;5031373;28;20717;-37
2023/01/16 04:53:42;;;;;;;2.08;0.60;;;0.30;99.90;;;-0.68;100.00;95374.44;5026513;28;20052;-37
2023/01/16 04:56:08;;;;;;;2.40;0.50;;;0.30;99.90;;;-0.64;100.00;95378.69;5028055;28;20458;-37
2023/01/16 04:58:34;;;;;;;2.42;0.50;;;0.30;99.90;;;-0.74;100.00;95362.50;5030034;28;20025;-37
2023/01/16 05:00:59;;;;;;;2.47;0.77;;;0.30;99.90;;;-0.74;100.00;95364.25;5024362;28;20033;-37
2023/01/16 05:03:25;;;;;;;1.55;0.60;;;0.20;99.90;;;-0.71;100.00;95352.09;5030994;28;20067;-37
2023/01/16 05:05:51;;;;;;;1.90;0.70;;;0.20;99.90;;;-0.70;100.00;95347.75;5027892;28;20040;-37
2023/01/16 05:08:16;;;;;;;1.95;0.70;;;0.20;99.90;;;-0.70;100.00;95347.75;5027249;28;20119;-37
2023/01/16 05:10:42;;;;;;;3.58;0.70;;;0.20;99.90;;;-0.80;100.00;95316.09;5027221;28;20052;-37
2023/01/16 05:13:08;;;;;;;2.65;0.60;;;0.20;99.90;;;-0.69;100.00;95337.38;5022835;28;20386;-37
2023/01/16 05:15:33;;;;;;;1.80;0.60;;;0.30;99.90;;;-0.74;100.00;95315.94;5025888;28;20029;-38
2023/01/16 05:17:59;;;;;;;2.45;0.80;;;0.30;99.90;;;-0.96;100.00;95280.25;5027166;28;20100;-37
2023/01/16 05:20:25;;;;;;;3.45;0.73;;;0.20;99.90;;;-0.72;100.00;95315.88;5021248;28;20038;-37
2023/01/16 05:22:50;;;;;;;1.65;0.73;;;0.30;99.90;;;-0.95;100.00;95270.78;5028655;28;20047;-37
2023/01/16 05:25:16;;;;;;;1.85;0.80;;;0.20;99.90;;;-0.70;100.00;95296.84;5030501;28;20086;-37
2023/01/16 05:27:42;;;;;;;1.52;0.65;;;0.30;99.90;;;-0.70;100.00;95289.09;5029899;28;20741;-37
2023/01/16 05:30:08;;;;;;;2.50;0.80;;;0.30;99.90;;;-0.70;100.00;95286.50;5029522;28;20039;-38
2023/01/16 05:32:34;;;;;;;1.48;0.70;;;0.30;99.90;;;-0.70;100.00;95275.28;5029495;28;20396;-37
2023/01/16 05:35:01;;;;;;;4.10;0.70;;;0.30;99.90;;;-0.63;100.00;95275.09;5024336;28;20029;-37
2023/01/16 05:37:28;;;;;;;1.65;0.52;;;0.30;99.90;;;-0.59;100.00;95262.91;5025680;28;20025;-37
2023/01/16 05:39:56;;;;;;;1.70;0.70;;;0.40;99.90;;;-0.48;100.00;95260.03;5027577;28;20041;-37
2023/01/16 05:42:24;;;;;;;1.80;0.60;;;0.50;99.90;;;-0.45;100.00;95252.16;5026581;28;20145;-37
2023/01/16 05:44:51;;;;;;;1.25;0.45;;;0.50;99.90;;;-0.37;100.00;95251.97;5028753;28;20044;-37
2023/01/16 05:47:19;;;;;;;1.98;0.90;;;0.50;99.90;;;-0.34;100.00;95237.19;5026723;28;20067;-37
2023/01/16 05:49:44;;;;;;;2.03;0.60;;;0.60;99.90;;;-0.35;100.00;95235.47;5029190;28;20112;-37
2023/01/16 05:52:10;;;;;;;3.33;0.90;;;0.60;99.90;;;-0.33;100.00;95212.97;5022892;28;20027;-37
2023/01/16 05:54:36;;;;;;;3.55;0.73;;;0.70;99.90;;;-0.51;100.00;95172.91;5023588;28;20037;-37
2023/01/16 05:57:02;;;;;;;2.25;0.73;;;0.70;99.90;;;-0.35;100.00;95196.63;5022955;28;20025;-37
2023/01/16 05:59:27;;;;;;;1.27;0.88;;;0.70;99.90;;;-0.36;100.00;95192.31;5032850;28;20033;-37
2023/01/16 06:01:53;;;;;;;2.55;0.73;;;0.60;99.90;;;-0.36;100.00;95186.31;5029597;28;20116;-37
2023/01/16 06:04:19;;;;;;;3.35;0.60;;;0.60;99.90;;;-0.29;100.00;95183.47;5026093;28;20412;-37
2023/01/16 06:06:45;;;;;;;1.48;0.43;;;0.70;99.90;;;-0.48;100.00;95139.19;5008065;28;20489;-37
2023/01/16 06:09:11;;;;;;;3.35;0.75;;;0.70;99.90;;;-0.27;100.00;95173.94;5019867;28;20037;-37
2023/01/16 06:11:37;;;;;;;1.20;0.60;;;0.70;99.90;;;-0.26;100.00;95169.59;5028988;28;20311;-37
2023/01/16 06:14:04;;;;;;;1.25;0.60;;;0.70;99.90;;;-0.26;100.00;95162.69;5025215;28;20441;-37
2023/01/16 06:16:31;;;;;;;2.78;0.90;;;0.80;99.90;;;-0.32;100.00;95134.38;5021349;28;20725;-37
2023/01/16 06:18:57;;;;;;;1.30;0.70;;;0.70;99.90;;;-0.22;100.00;95140.97;5025764;28;21385;-37
2023/01/16 06:21:23;;;;;;;1.80;1.00;;;0.80;99.90;;;-0.31;100.00;95111.91;5026835;28;20394;-37
2023/01/16 06:23:48;;;;;;;1.90;0.85;;;0.80;99.90;;;-0.21;100.00;95113.34;5020513;28;20033;-37
2023/01/16 06:26:14;;;;;;;2.88;1.10;;;0.80;99.90;;;-0.16;100.00;95110.59;5026348;28;20421;-37
2023/01/16 06:28:40;;;;;;;3.88;1.05;;;0.80;99.90;;;-0.13;100.00;95100.13;5025804;28;20108;-37
2023/01/16 06:31:07;;;;;;;5.50;1.13;;;0.90;99.90;;;-0.14;100.00;95098.41;5024471;28;20187;-37
2023/01/16 06:33:33;;;;;;;3.47;1.00;;;0.90;99.90;;;-0.07;100.00;95090.44;5018514;28;20029;-36
2023/01/16 06:35:59;;;;;;;2.00;0.80;;;0.90;99.90;;;-0.04;100.00;95079.09;5018688;28;20064;-37
2023/01/16 06:38:25;;;;;;;3.65;0.90;;;1.00;99.90;;;0.03;100.00;95072.81;5021024;28;20571;-37
2023/01/16 06:40:55;;;;;;;2.28;0.90;;;1.00;99.90;;;0.09;100.00;95051.03;5022369;28;20033;-37
2023/01/16 06:43:23;;;;;;;6.13;0.90;;;1.10;99.90;;;0.15;100.00;95064.66;5030424;28;20127;-37
2023/01/16 06:45:49;;;;;;;2.67;1.13;;;1.10;99.90;;;0.11;100.00;95059.63;5031891;28;20035;-37
2023/01/16 06:48:15;;;;;;;5.15;1.10;;;1.10;99.90;;;0.12;100.00;95054.38;5031475;28;20026;-37
2023/01/16 06:50:40;;;;;;;2.13;0.75;;;1.10;99.90;;;0.15;100.00;95053.44;5026270;28;20528;-37
2023/01/16 06:53:06;;;;;;;4.35;0.98;;;1.10;99.90;;;0.16;100.00;95050.81;5023737;28;20058;-37
2023/01/16 06:55:32;;;;;;;4.88;1.10;;;1.20;99.90;;;-0.02;100.00;94992.66;5028505;28;20040;-37
2023/01/16 06:57:57;;;;;;;3.28;1.08;;;1.20;99.90;;;0.22;100.00;95036.78;5034031;28;20058;-37
2023/01/16 07:00:23;;;;;;;2.95;0.88;;;1.20;99.90;;;0.27;100.00;95028.81;5029076;28;20029;-37
2023/01/16 07:02:54;;;;;;;3.88;1.00;;;1.30;99.90;;;0.29;100.00;95029.66;5027516;28;21831;-37
2023/01/16 07:05:22;;;;;;;3.03;1.17;;;1.30;99.90;;;0.21;100.00;95003.13;5025047;28;20485;-37
2023/01/16 07:07:49;;;;;;;3.65;0.90;;;1.30;99.90;;;0.38;100.00;95009.41;5023500;28;20036;-35
2023/01/16 07:10:15;;;;;;;2.38;0.93;;;1.30;99.90;;;0.40;100.00;95008.53;5023058;28;20228;-37
2023/01/16 07:12:41;;;;;;;1.27;0.80;;;1.40;99.90;;;0.44;100.00;94999.75;5028833;28;20188;-37
2023/01/16 07:23:28;;;;;;;3.28;1.10;;;1.50;99.90;;;0.56;100.00;94984.56;5029245;28;20047;-37
2023/01/16 07:25:55;;;;;;;;;;;1.50;99.90;;;0.57;100.00;94982.81;5030610;28;20452;-37
2023/01/16 07:28:21;;;;;;;1.20;0.80;;;1.50;99.90;;;0.63;100.00;94981.75;5028641;28;19916;-37
2023/01/16 07:30:48;;;;;;;3.95;1.00;;;1.60;99.90;;;0.65;100.00;94969.59;5027814;28;20083;-37
2023/01/16 07:33:14;;;;;;;5.45;1.00;;;1.60;99.90;;;0.68;100.00;94964.28;5026459;28;20029;-37
2023/01/16 07:35:40;;;;;;;2.90;0.82;;;1.60;99.90;;;0.71;100.00;94965.00;5024225;28;20096;-37
2023/01/16 07:38:06;;;;;;;4.95;0.95;;;1.60;99.90;;;0.80;100.00;94957.78;5024488;28;20056;-37
2023/01/16 07:40:31;;;;;;;4.25;0.90;;;1.70;99.90;;;0.79;100.00;94956.97;5027416;28;20119;-37
2023/01/16 07:42:57;;;;;;;4.80;1.20;;;1.70;99.90;;;0.88;100.00;94960.94;5028987;28;20037;-37
2023/01/16 07:45:23;;;;;;;1.77;0.70;;;1.80;99.90;;;0.74;100.00;94928.56;5024783;28;20706;-37
2023/01/16 07:47:49;;;;;;;3.83;1.05;;;1.90;99.90;;;0.80;100.00;94926.66;5033705;28;20020;-37
2023/01/16 07:50:14;;;;;;;1.73;0.93;;;1.90;99.90;;;0.96;100.00;94940.72;5028811;28;20037;-37
2023/01/16 07:52:43;;;;;;;1.73;0.95;;;1.90;99.90;;;0.95;100.00;94931.25;5025743;28;20481;-37
2023/01/16 07:55:09;;;;;;;4.50;1.08;;;1.90;99.90;;;0.95;100.00;94913.94;5029950;28;20068;-37
2023/01/16 07:57:38;;;;;;;2.55;1.02;;;2.00;99.90;;;1.15;100.00;94927.91;5030942;28;20107;-37
2023/01/16 08:00:07;;;;;;;1.88;1.15;;;2.00;99.90;;;0.99;100.00;94887.84;5028099;28;20556;-36
2023/01/16 08:02:33;;;;;;;2.13;1.17;;;2.10;99.90;;;1.18;100.00;94919.97;5022810;28;20044;-37
2023/01/16 08:04:58;;;;;;;2.75;0.75;;;2.10;99.90;;;1.20;100.00;94905.16;5013510;28;20401;-36
2023/01/16 08:07:24;;;;;;;2.47;1.17;;;2.10;99.90;;;1.22;100.00;94886.94;5024260;28;20033;-37
2023/01/16 08:09:50;;;;;;;2.53;0.90;;;2.10;99.90;;;1.19;100.00;94881.88;5027016;28;20032;-37
2023/01/16 08:12:15;;;;;;;1.55;0.90;;;2.20;99.90;;;1.24;100.00;94890.31;5026657;28;20037;-37
2023/01/16 08:14:41;;;;;;;3.85;1.27;;;2.20;99.90;;;1.21;100.00;94877.47;5024195;28;20029;-36
2023/01/16 08:17:08;;;;;;;4.30;1.23;;;2.20;99.90;;;1.19;100.00;94846.38;5023142;28;20029;-35
2023/01/16 08:19:33;;;;;;;3.75;1.10;;;2.30;99.90;;;1.44;100.00;94866.16;5025663;28;20052;-36
2023/01/16 08:21:59;;;;;;;2.95;1.35;;;2.40;99.90;;;1.44;100.00;94861.78;5025840;28;20283;-38
2023/01/16 08:24:25;;;;;;;3.65;0.82;;;2.40;99.90;;;1.53;100.00;94868.34;5028851;28;20025;-36
2023/01/16 08:26:55;;;;;;;2.15;0.82;;;2.40;99.90;;;1.57;100.00;94869.91;5029259;28;20056;-35
2023/01/16 08:29:22;;;;;;;1.33;0.90;;;2.50;99.90;;;1.63;100.00;94867.03;5032330;28;20195;-37
2023/01/16 08:31:47;;;;;;;4.28;1.38;;;2.50;99.90;;;1.76;100.00;94861.31;5023828;28;20286;-37
2023/01/16 08:34:13;;;;;;;2.67;1.23;;;2.60;99.90;;;1.82;100.00;94858.47;5027794;28;20036;-37
2023/01/16 08:36:39;;;;;;;2.83;1.08;;;2.70;99.90;;;1.95;100.00;94840.59;5022261;28;20043;-37
2023/01/16 08:39:04;;;;;;;3.22;1.13;;;2.80;99.90;;;1.98;100.00;94846.50;5010877;28;20477;-37
2023/01/16 08:52:42;;;;;;;4.18;1.10;;;3.10;99.90;;;2.25;100.00;94817.56;5021344;28;20068;-41
2023/01/16 08:55:08;;;;;;;5.40;0.80;;;3.20;99.90;;;2.28;100.00;94823.47;5033879;28;20047;-41
2023/01/16 08:57:34;;;;;;;3.10;0.80;;;3.20;99.90;;;2.28;100.00;94827.84;5037797;28;20033;-41
2023/01/16 09:00:01;;;;;;;1.80;0.88;;;3.20;99.90;;;2.30;100.00;94826.00;5027439;28;20033;-40
2023/01/16 09:02:27;;;;;;;3.05;0.90;;;3.20;99.90;;;2.35;100.00;94834.47;5024647;28;20556;-40
2023/01/16 09:04:54;;;;;;;1.65;0.82;;;3.30;99.90;;;2.39;100.00;94829.97;5028424;28;20252;-40
2023/01/16 09:07:21;;;;;;;2.80;0.80;;;3.30;99.90;;;2.44;100.00;94831.44;5013724;28;20029;-41
2023/01/16 09:09:47;;;;;;;1.85;0.63;;;3.30;99.90;;;2.42;100.00;94825.47;5030275;28;20399;-41
2023/01/16 09:14:59;;;;;;;1.40;0.80;;;3.40;99.90;;;2.52;100.00;94851.03;5030686;28;20042;-40
2023/01/16 09:17:26;;;;;;;1.52;0.70;;;3.40;99.90;;;2.52;100.00;94858.84;5028811;28;20033;-40
2023/01/16 09:19:52;;;;;;;1.35;0.65;;;3.40;99.90;;;2.61;100.00;94874.03;5028833;28;20716;-40
2023/01/16 09:22:19;;;;;;;0.98;0.70;;;3.50;99.90;;;2.64;100.00;94881.69;5030250;28;20211;-40
2023/01/16 09:24:45;;;;;;;1.77;0.80;;;3.50;99.90;;;2.67;100.00;94881.53;5023078;28;20214;-40
2023/01/16 09:27:13;;;;;;;1.67;0.68;;;3.60;99.90;;;2.74;100.00;94872.53;5018421;28;20032;-40
2023/01/16 09:29:40;;;;;;;0.75;0.70;;;3.60;99.90;;;2.82;99.96;94865.22;5033102;28;20110;-41
2023/01/16 09:32:08;;;;;;;3.42;0.80;;;3.70;99.90;;;2.84;98.81;94852.13;5023936;28;20029;-41
2023/01/16 09:34:38;;;;;;;2.53;0.90;;;3.70;99.90;;;2.90;99.36;94832.78;5024032;28;20276;-42
2023/01/16 09:37:05;;;;;;;6.95;0.98;;;3.80;99.90;;;2.96;95.94;94837.69;5030357;28;20040;-40
2023/01/16 09:39:32;;;;;;;1.20;0.60;;;3.80;99.90;;;3.05;96.90;94822.47;5027904;28;20026;-41
2023/01/16 09:45:16;;;;;;;2.95;0.60;;;4.00;99.90;;;3.21;92.01;94790.47;5025473;28;20036;-41
2023/01/16 09:47:49;;;;;;;3.92;0.60;;;4.20;99.90;;;3.45;88.33;94806.63;5026895;28;20337;-41
2023/01/16 09:50:40;;;;;;;2.47;0.70;;;4.30;99.90;;;3.58;89.25;94805.09;5009852;28;20049;-41
2023/01/16 09:58:58;;;;;;;1.23;0.50;;;4.60;99.90;;;3.80;82.60;94794.41;5025173;28;20513;-42
2023/01/16 10:01:32;;;;;;;1.73;0.80;;;4.60;99.90;;;3.83;81.07;94796.00;5006898;28;20136;-41
2023/01/16 10:04:23;;;;;;;3.80;0.65;;;4.70;99.90;;;3.83;80.65;94790.78;5007546;28;20044;-41
2023/01/16 10:07:58;;;;;;;0.80;0.47;;;4.70;99.90;;;3.89;81.39;94773.97;5028085;28;20077;-42
2023/01/16 10:10:43;;;;;;;1.40;0.55;;;4.70;99.90;;;3.84;78.40;94758.59;4960338;28;20049;-41
2023/01/16 10:14:03;;;;;;;1.75;0.52;;;4.70;99.90;;;3.83;78.06;94756.91;5014107;28;20041;-41
2023/01/16 10:16:56;;;;;;;1.63;0.52;;;4.70;99.90;;;3.82;80.68;94740.44;4962440;28;20439;-41
2023/01/16 10:19:56;;;;;;;1.48;0.60;;;4.70;99.90;;;3.87;83.91;94719.31;4951375;28;20145;-41
2023/01/16 10:22:40;;;;;;;2.55;0.60;;;4.70;99.90;;;3.73;74.89;94727.88;5018732;28;20052;-41
2023/01/16 10:25:39;;;;;;;2.72;0.60;;;4.70;99.90;;;3.71;71.85;94726.25;5023640;28;20086;-41
2023/01/16 10:28:49;;;;;;;0.77;0.47;;;4.60;99.90;;;3.78;71.12;94720.63;5019364;28;20049;-41
2023/01/16 10:31:26;;;;;;;1.73;0.45;;;4.60;99.90;;;3.81;75.41;94719.66;4994821;28;20192;-41
2023/01/16 10:34:29;;;;;;;0.63;0.60;;;4.70;99.90;;;3.83;73.24;94720.41;5009137;28;20024;-42
2023/01/16 10:36:58;;;;;;;0.60;0.40;;;4.70;99.90;;;3.91;71.43;94706.94;5009127;28;20029;-42
2023/01/16 10:39:31;;;;;;;1.70;0.50;;;4.80;99.90;;;3.96;72.56;94710.16;5023240;28;20428;-42
2023/01/16 10:50:58;;;;;;;1.40;0.70;;;5.00;99.90;;;4.16;67.77;94680.38;5015231;28;20777;-43
2023/01/16 10:53:24;;;;;;;1.20;0.60;;;5.00;99.90;;;4.26;69.19;94670.28;5010386;28;20548;-41
2023/01/16 10:55:52;;;;;;;1.67;0.77;;;5.00;99.90;;;4.29;70.77;94675.31;5032499;28;20112;-42
2023/01/16 10:58:37;;;;;;;1.10;0.50;;;5.10;99.90;;;4.24;71.73;94646.91;5015946;28;20033;-42
2023/01/16 11:01:24;;;;;;;3.30;0.68;;;5.10;99.90;;;4.39;71.19;94653.84;5020156;28;20041;-43
2023/01/16 11:03:59;;;;;;;1.95;0.55;;;5.20;99.90;;;4.43;71.20;94649.28;5026930;28;20071;-43
2023/01/16 11:06:27;;;;;;;0.88;0.50;;;5.30;99.90;;;4.49;71.29;94651.56;5033852;28;20103;-41
2023/01/16 11:09:07;;;;;;;2.05;0.60;;;5.30;99.90;;;4.51;73.16;94664.53;5018174;28;20103;-40
2023/01/16 11:20:28;;;;;;;2.30;0.90;;;5.40;99.90;;;4.72;74.14;94623.28;5028189;28;20040;-40
2023/01/16 11:23:04;;;;;;;2.42;0.70;;;5.50;99.90;;;4.78;74.71;94620.34;5029177;28;20496;-40
2023/01/16 11:25:31;;;;;;;0.60;0.30;;;5.60;99.90;;;4.85;75.78;94608.59;5026501;28;20143;-40
2023/01/16 11:28:02;;;;;;;0.65;0.38;;;5.60;99.90;;;4.87;76.41;94604.13;5004867;28;20404;-40
2023/01/16 11:30:33;;;;;;;0.30;0.30;;;5.70;99.90;;;4.90;79.11;94585.69;5009568;28;20083;-40
2023/01/16 11:32:59;;;;;;;1.08;0.40;;;5.80;99.90;;;4.96;80.11;94576.63;4997641;28;20665;-40
2023/01/16 11:35:34;;;;;;;0.70;0.40;;;5.80;99.90;;;5.14;79.67;94577.28;5012638;28;20045;-40
2023/01/16 11:38:02;;;;;;;1.80;0.32;;;5.90;99.90;;;5.08;82.68;94555.00;5026749;28;20126;-42